Ride Results

Cobb & Co Zone Championship Ride (04-12-2004)
Ride distance: 160.0 km

Outcomes - Cobb & Co Zone Championship Ride (04-12-2004)
Division No. of Entries Retired / DNE Completed Withdrawn Ineligible V/O Percentage Completed
HW 9 - 3 1 - 5 33.33%
MW 24 - 14 - - 10 58.33%
LW 3 - 1 1 - 1 33.33%
JN 7 - 2 - - 5 28.57%
Totals 43 - 20 2 - 21 46.51%
Results - Cobb & Co Zone Championship Ride (04-12-2004)
No. Rider Horse Place Time Leg Speeds Total
Km/Hr
H/R bpm
Heavyweight
31 Craig Ellison Aquarius Park Chantilly Lace 1 (BC) 10:55:00 15.9, 14.6, 14.0, 13.2, 17.6 14.66 45, 41, 39, 43, 46, 47 (Avg:43)
36 Gavin Groth Gambler 2 14:44:00 14.4, 12.1, 11.0, 7.2, 14.9 10.86 33, 39, 42, 42, 50, 49 (Avg:44)
34 Kieron Power Alfie Langer 3 19:27:00 10.4, 10.2, 10.1, 5.7, 5.5 8.23 34, 38, 50, 45, 44, 43 (Avg:44)
37 Allan Caslick Wollumbin Sambuca Lame L5 0:00:00 15.4, 14.6, 14.9, 15.4, 10.8 - 43, 40, 42, 48, 53, 56 (Avg:47)
30 Stephen Scott Qadir Widthdrawn L3 0:00:00 - - 36, 46, 45, 52 (Avg:47)
35 Neil Clarkson Espirit Sherwood Lame L2 0:00:00 14.6, 12.5 - 48, 45, 48 (Avg:46)
32 Steve Brisbane Jon-De-Le Begin Lame L1 0:00:00 13.5 - 37, 48 (Avg:48)
33 John Dawson Killibinbin Rhadames Lame L1 0:00:00 13.5 - 40, 47 (Avg:47)
27 Chris Walker Parlour Mountain Tango Lame L1 0:00:00 14.0 - 38, 40 (Avg:40)
Middleweight
9 Jennifer Gilbertson Master Renaut (Ferrymaster at Webbs Creek) 1 9:46:00 16.7, 16.9, 16.1, 15.8, 16.3 16.38 39, 39, 38, 41, 49, 47 (Avg:42)
26 Meg Wade Castlebar Khalifa 1 (BC) 9:46:00 16.9, 16.7, 16.2, 15.6, 16.3 16.38 31, 37, 42, 42, 42, 44 (Avg:41)
4 Joyce Corbett Brookleigh Ricardo 3 11:04:00 15.9, 14.6, 14.0, 13.2, 14.9 14.46 39, 46, 44, 45, 51, 51 (Avg:47)
11 Claudia Reid Ningadoo Milan 4 11:06:00 14.6, 14.4, 14.0, 14.3, 14.9 14.41 36, 40, 40, 42, 46, 44 (Avg:42)
20 Ben Caslick Pinehill Kerry 5 14:44:00 13.8, 12.5, 11.0, 9.2, 7.4 10.86 43, 46, 45, 46, 45, 49 (Avg:46)
8 Mark Harding Affinity 6 15:51:00 13.5, 11.0, 10.1, 8.7, 7.0 10.09 38, 41, 46, 43, 41, 41 (Avg:42)
7 Gary Tweedie Annabella Jenaskali 6 15:51:00 13.5, 11.0, 10.1, 8.7, 7.0 10.09 33, 41, 43, 46, 42, 44 (Avg:43)
16 Jaimee Foulsham Algalahn 8 15:51:01 12.3, 11.2, 10.1, 8.4, 8.1 10.09 33, 36, 41, 45, 43, 44 (Avg:41)
23 Marlene Harrigan Starlight Lodge Tamarah 9 16:44:00 14.4, 12.4, 9.3, 7.8, 5.4 9.56 31, 37, 38, 43, 43, 42 (Avg:40)
6 Jody O'Leary-Gowen Camelot Retreat Ashmah 9 16:44:00 14.2, 11.2, 10.1, 7.9, 5.3 9.56 38, 45, 42, 47, 48, 47 (Avg:45)
24 Jo Bailey Tango 11 18:37:00 11.6, 10.7, 9.3, 6.9, 4.9 8.59 35, 47, 52, 50, 50, 51 (Avg:50)
25 Lyn Bailey Lyndrian Reflection 11 18:37:00 11.5, 10.7, 9.3, 6.7, 5.1 8.59 40, 43, 43, 44, 43, 40 (Avg:42)
21 Kirrilee Eves Tristal Park Miracle 13 18:38:00 9.4, 12.1, 10.0, 6.8, 4.9 8.59 39, 45, 46, 53, 48, 52 (Avg:48)
17 Josette Hussey Aloha Fasaha 14 21:08:00 13.8, 8.2, 5.7, 7.3, 6.3 7.57 34, 38, 44, 44, 45, 44 (Avg:43)
19 Susan Pritchard Cherox Aldaniti Lame L4 0:00:00 14.4, 12.1, 11.0, 9.2 - 35, 43, 42, 44, 36 (Avg:41)
2 Sally Stevens Crown Crest Silver Moon Lame L4 0:00:00 13.4, 11.1, 10.2, 8.3 - 33, 37, 41, 46, 51 (Avg:43)
28 Kristie Taprell Tierview Maverick Lame L4 0:00:00 16.9, 16.7, 16.2, 15.6 - 41, 55, 53, 54, 50 (Avg:53)
1 Raymond Griffiths Hazeldean Amira Estara Lame L3 0:00:00 12.9, 23.0, 13.1 - 46, 48, 53, 53 (Avg:51)
15 Louis Botha Abdashar Shahthungra Lame L2 0:00:00 12.3, 11.2 - 33, 40, 39 (Avg:39)
10 Sonya Ruprecht Jiah Bandit Lame L2 0:00:00 10.5, 10.0 - 42, 46, 51 (Avg:48)
18 Stephanie Grolimund Aloha Vikara Lame L1 0:00:00 13.2 - 42, 40 (Avg:40)
22 Rhiannon Groth Ceda Lame L1 0:00:00 14.4 - 35, 43 (Avg:43)
3 Howard Harris Harmere Turfan Heart Rate L1 0:00:00 15.9 - 39, 69 (Avg:69)
5 Rachel Stephens Glenroy Dream Weaver Lame L1 0:00:00 15.9 - 41, 40 (Avg:40)
Lightweight
42 Wendy Jones Rise 'N' Shine 1 (BC) 14:44:00 15.9, 13.2, 11.3, 8.0, 7.4 10.86 36, 43, 41, 42, 43, 42 (Avg:42)
41 Fia Hasko-Stewart Blake's Heaven Aztec Widthdrawn L2 0:00:00 - - 41, 50, 50 (Avg:50)
49 Tracy-Lee Cossor Oso Flambeau Heart Rate L1 0:00:00 15.4 - 36, 62 (Avg:62)
Junior
52 Erin Mostead Peppermint Springs Rose 1 (BC) 9:43:00 16.9, 16.9, 15.7, 16.8, 15.7 16.47 51, 46, 47, 51, 51, 53 (Avg:49)
55 Brooke Warner Bronte 2 14:44:00 14.4, 12.1, 11.0, 9.2, 7.4 10.86 37, 44, 46, 49, 59, 46 (Avg:48)
51 Shay Corbett Midu Ariel Lame L3 0:00:00 16.9, 16.9, 15.7 - 37, 41, 39, 46 (Avg:42)
54 Luke Harvey Lizian Jaleel Lame L2 0:00:00 9.4, 12.1 - 44, 45, 46 (Avg:45)
40 Talea Hasko-Stewart Blake's Heaven Ventura Lame L2 0:00:00 14.5, 11.4 - 43, 48, 46 (Avg:47)
53 Allix Jones Dammah Lame L2 0:00:00 15.9, 13.3 - 34, 40, 40 (Avg:40)
50 Kate Scott Twilight Lame L2 0:00:00 12.0, 9.2 - 37, 52, 53 (Avg:52)